sensor_id;sensor_type;location;lat;lon;timestamp;temperature;humidity
8043;DHT22;4064;48.132;11.366;2022-10-28T00:01:18;10.60;99.90
8043;DHT22;4064;48.132;11.366;2022-10-28T00:03:46;10.70;99.90
8043;DHT22;4064;48.132;11.366;2022-10-28T00:06:15;10.70;99.90
8043;DHT22;4064;48.132;11.366;2022-10-28T00:08:42;10.80;99.90
8043;DHT22;4064;48.132;11.366;2022-10-28T00:11:14;10.80;99.90
8043;DHT22;4064;48.132;11.366;2022-10-28T00:13:41;10.90;99.90
8043;DHT22;4064;48.132;11.366;2022-10-28T00:16:17;10.90;99.90
8043;DHT22;4064;48.132;11.366;2022-10-28T00:18:43;10.90;99.90
8043;DHT22;4064;48.132;11.366;2022-10-28T00:21:18;10.90;99.90
8043;DHT22;4064;48.132;11.366;2022-10-28T00:23:44;10.90;99.90
8043;DHT22;4064;48.132;11.366;2022-10-28T00:26:22;10.90;99.90
8043;DHT22;4064;48.132;11.366;2022-10-28T00:28:58;10.80;99.90
8043;DHT22;4064;48.132;11.366;2022-10-28T00:31:25;10.80;99.90
8043;DHT22;4064;48.132;11.366;2022-10-28T00:33:52;10.80;99.90
8043;DHT22;4064;48.132;11.366;2022-10-28T00:36:19;10.80;99.90
8043;DHT22;4064;48.132;11.366;2022-10-28T00:38:47;10.80;99.90
8043;DHT22;4064;48.132;11.366;2022-10-28T00:41:23;10.80;99.90
8043;DHT22;4064;48.132;11.366;2022-10-28T00:43:58;10.80;99.90
8043;DHT22;4064;48.132;11.366;2022-10-28T00:46:36;10.80;99.90
8043;DHT22;4064;48.132;11.366;2022-10-28T00:51:41;10.80;99.90
8043;DHT22;4064;48.132;11.366;2022-10-28T00:54:08;10.80;99.90
8043;DHT22;4064;48.132;11.366;2022-10-28T00:56:38;10.70;99.90
8043;DHT22;4064;48.132;11.366;2022-10-28T00:59:09;10.60;99.90
8043;DHT22;4064;48.132;11.366;2022-10-28T01:01:36;10.60;99.90
8043;DHT22;4064;48.132;11.366;2022-10-28T01:04:02;10.60;99.90
8043;DHT22;4064;48.132;11.366;2022-10-28T01:06:28;10.50;99.90
8043;DHT22;4064;48.132;11.366;2022-10-28T01:08:54;10.50;99.90
8043;DHT22;4064;48.132;11.366;2022-10-28T01:11:44;10.40;99.90
8043;DHT22;4064;48.132;11.366;2022-10-28T01:15:02;10.40;99.90
8043;DHT22;4064;48.132;11.366;2022-10-28T01:39:10;10.40;99.90
8043;DHT22;4064;48.132;11.366;2022-10-28T01:44:33;10.40;99.90
8043;DHT22;4064;48.132;11.366;2022-10-28T01:47:18;10.40;99.90
8043;DHT22;4064;48.132;11.366;2022-10-28T01:49:47;10.30;99.90
8043;DHT22;4064;48.132;11.366;2022-10-28T01:52:17;10.30;99.90
8043;DHT22;4064;48.132;11.366;2022-10-28T01:54:49;10.30;99.90
8043;DHT22;4064;48.132;11.366;2022-10-28T01:57:17;10.30;99.90
8043;DHT22;4064;48.132;11.366;2022-10-28T01:59:44;10.30;99.90
8043;DHT22;4064;48.132;11.366;2022-10-28T02:02:13;10.30;99.90
8043;DHT22;4064;48.132;11.366;2022-10-28T02:04:38;10.30;99.90
8043;DHT22;4064;48.132;11.366;2022-10-28T02:07:04;10.30;99.90
8043;DHT22;4064;48.132;11.366;2022-10-28T02:12:30;10.20;99.90
8043;DHT22;4064;48.132;11.366;2022-10-28T02:20:13;10.10;99.90
8043;DHT22;4064;48.132;11.366;2022-10-28T02:22:53;10.10;99.90
8043;DHT22;4064;48.132;11.366;2022-10-28T02:25:30;10.10;99.90
8043;DHT22;4064;48.132;11.366;2022-10-28T02:28:13;10.00;99.90
8043;DHT22;4064;48.132;11.366;2022-10-28T02:30:48;9.90;99.90
8043;DHT22;4064;48.132;11.366;2022-10-28T02:33:19;9.90;99.90
8043;DHT22;4064;48.132;11.366;2022-10-28T02:36:13;9.90;99.90
8043;DHT22;4064;48.132;11.366;2022-10-28T02:38:46;9.90;99.90
8043;DHT22;4064;48.132;11.366;2022-10-28T02:41:20;9.80;99.90
8043;DHT22;4064;48.132;11.366;2022-10-28T02:43:54;9.80;99.90
8043;DHT22;4064;48.132;11.366;2022-10-28T02:46:23;9.70;99.90
8043;DHT22;4064;48.132;11.366;2022-10-28T02:48:59;9.80;99.90
8043;DHT22;4064;48.132;11.366;2022-10-28T02:51:30;9.80;99.90
8043;DHT22;4064;48.132;11.366;2022-10-28T02:54:08;9.80;99.90
8043;DHT22;4064;48.132;11.366;2022-10-28T02:56:41;9.80;99.90
8043;DHT22;4064;48.132;11.366;2022-10-28T02:59:12;9.80;99.90
8043;DHT22;4064;48.132;11.366;2022-10-28T03:01:38;9.80;99.90
8043;DHT22;4064;48.132;11.366;2022-10-28T03:04:04;9.80;99.90
8043;DHT22;4064;48.132;11.366;2022-10-28T03:06:31;9.70;99.90
8043;DHT22;4064;48.132;11.366;2022-10-28T03:08:56;9.70;99.90
8043;DHT22;4064;48.132;11.366;2022-10-28T03:11:22;9.70;99.90
8043;DHT22;4064;48.132;11.366;2022-10-28T03:13:48;9.70;99.90
8043;DHT22;4064;48.132;11.366;2022-10-28T03:16:13;9.60;99.90
8043;DHT22;4064;48.132;11.366;2022-10-28T03:18:39;9.70;99.90
8043;DHT22;4064;48.132;11.366;2022-10-28T03:21:04;9.70;99.90
8043;DHT22;4064;48.132;11.366;2022-10-28T03:23:30;9.60;99.90
8043;DHT22;4064;48.132;11.366;2022-10-28T03:25:56;9.60;99.90
8043;DHT22;4064;48.132;11.366;2022-10-28T03:28:21;9.50;99.90
8043;DHT22;4064;48.132;11.366;2022-10-28T03:30:47;9.50;99.90
8043;DHT22;4064;48.132;11.366;2022-10-28T03:33:12;9.50;99.90
8043;DHT22;4064;48.132;11.366;2022-10-28T03:35:38;9.40;99.90
8043;DHT22;4064;48.132;11.366;2022-10-28T03:38:04;9.40;99.90
8043;DHT22;4064;48.132;11.366;2022-10-28T03:40:30;9.30;99.90
8043;DHT22;4064;48.132;11.366;2022-10-28T03:42:55;9.30;99.90
8043;DHT22;4064;48.132;11.366;2022-10-28T03:45:21;9.30;99.90
8043;DHT22;4064;48.132;11.366;2022-10-28T03:47:46;9.20;99.90
8043;DHT22;4064;48.132;11.366;2022-10-28T03:50:12;9.20;99.90
8043;DHT22;4064;48.132;11.366;2022-10-28T03:52:38;9.20;99.90
8043;DHT22;4064;48.132;11.366;2022-10-28T03:55:04;9.20;99.90
8043;DHT22;4064;48.132;11.366;2022-10-28T03:57:31;9.20;99.90
8043;DHT22;4064;48.132;11.366;2022-10-28T03:59:57;9.20;99.90
8043;DHT22;4064;48.132;11.366;2022-10-28T04:02:22;9.20;99.90
8043;DHT22;4064;48.132;11.366;2022-10-28T04:04:48;9.20;99.90
8043;DHT22;4064;48.132;11.366;2022-10-28T04:07:13;9.20;99.90
8043;DHT22;4064;48.132;11.366;2022-10-28T04:09:39;9.10;99.90
8043;DHT22;4064;48.132;11.366;2022-10-28T04:12:05;9.10;99.90
8043;DHT22;4064;48.132;11.366;2022-10-28T04:14:31;9.00;99.90
8043;DHT22;4064;48.132;11.366;2022-10-28T04:16:57;9.10;99.90
8043;DHT22;4064;48.132;11.366;2022-10-28T04:19:22;9.00;99.90
8043;DHT22;4064;48.132;11.366;2022-10-28T04:21:48;9.00;99.90
8043;DHT22;4064;48.132;11.366;2022-10-28T04:24:13;9.10;99.90
8043;DHT22;4064;48.132;11.366;2022-10-28T04:26:39;9.00;99.90
8043;DHT22;4064;48.132;11.366;2022-10-28T04:29:05;9.00;99.90
8043;DHT22;4064;48.132;11.366;2022-10-28T04:31:30;9.00;99.90
8043;DHT22;4064;48.132;11.366;2022-10-28T04:33:56;8.90;99.90
8043;DHT22;4064;48.132;11.366;2022-10-28T04:36:21;9.00;99.90
8043;DHT22;4064;48.132;11.366;2022-10-28T04:38:47;8.90;99.90
8043;DHT22;4064;48.132;11.366;2022-10-28T04:41:14;8.90;99.90
8043;DHT22;4064;48.132;11.366;2022-10-28T04:43:40;8.90;99.90
8043;DHT22;4064;48.132;11.366;2022-10-28T04:46:05;8.90;99.90
8043;DHT22;4064;48.132;11.366;2022-10-28T04:48:32;8.90;99.90
8043;DHT22;4064;48.132;11.366;2022-10-28T04:50:58;9.00;99.90
8043;DHT22;4064;48.132;11.366;2022-10-28T04:53:23;8.90;99.90
8043;DHT22;4064;48.132;11.366;2022-10-28T04:55:49;8.90;99.90
8043;DHT22;4064;48.132;11.366;2022-10-28T04:58:15;8.90;99.90
8043;DHT22;4064;48.132;11.366;2022-10-28T05:00:40;8.80;99.90
8043;DHT22;4064;48.132;11.366;2022-10-28T05:03:06;8.90;99.90
8043;DHT22;4064;48.132;11.366;2022-10-28T05:05:32;8.80;99.90
8043;DHT22;4064;48.132;11.366;2022-10-28T05:07:57;8.80;99.90
8043;DHT22;4064;48.132;11.366;2022-10-28T05:10:23;8.80;99.90
8043;DHT22;4064;48.132;11.366;2022-10-28T05:12:49;8.80;99.90
8043;DHT22;4064;48.132;11.366;2022-10-28T05:15:14;8.80;99.90
8043;DHT22;4064;48.132;11.366;2022-10-28T05:17:44;8.80;99.90
8043;DHT22;4064;48.132;11.366;2022-10-28T05:20:11;8.90;99.90
8043;DHT22;4064;48.132;11.366;2022-10-28T05:22:37;8.90;99.90
8043;DHT22;4064;48.132;11.366;2022-10-28T05:25:09;8.90;99.90
8043;DHT22;4064;48.132;11.366;2022-10-28T05:27:34;8.90;99.90
8043;DHT22;4064;48.132;11.366;2022-10-28T05:30:00;9.00;99.90
8043;DHT22;4064;48.132;11.366;2022-10-28T05:32:25;9.00;99.90
8043;DHT22;4064;48.132;11.366;2022-10-28T05:34:51;9.20;99.90
8043;DHT22;4064;48.132;11.366;2022-10-28T05:37:17;9.30;99.90
8043;DHT22;4064;48.132;11.366;2022-10-28T05:39:42;9.40;99.90
8043;DHT22;4064;48.132;11.366;2022-10-28T05:42:08;9.50;99.90
8043;DHT22;4064;48.132;11.366;2022-10-28T05:44:33;9.60;99.90
8043;DHT22;4064;48.132;11.366;2022-10-28T05:46:59;9.70;99.90
8043;DHT22;4064;48.132;11.366;2022-10-28T05:49:24;9.90;99.90
8043;DHT22;4064;48.132;11.366;2022-10-28T05:51:50;10.00;99.90
8043;DHT22;4064;48.132;11.366;2022-10-28T05:54:16;10.10;99.90
8043;DHT22;4064;48.132;11.366;2022-10-28T05:56:41;10.10;99.90
8043;DHT22;4064;48.132;11.366;2022-10-28T05:59:07;10.30;99.90
8043;DHT22;4064;48.132;11.366;2022-10-28T06:01:32;10.30;99.90
8043;DHT22;4064;48.132;11.366;2022-10-28T06:03:58;10.40;99.90
8043;DHT22;4064;48.132;11.366;2022-10-28T06:06:24;10.40;99.90
8043;DHT22;4064;48.132;11.366;2022-10-28T06:08:49;10.40;99.90
8043;DHT22;4064;48.132;11.366;2022-10-28T06:11:15;10.40;99.90
8043;DHT22;4064;48.132;11.366;2022-10-28T06:13:40;10.40;99.90
8043;DHT22;4064;48.132;11.366;2022-10-28T06:16:07;10.40;99.90
8043;DHT22;4064;48.132;11.366;2022-10-28T06:18:32;10.30;99.90
8043;DHT22;4064;48.132;11.366;2022-10-28T06:20:58;10.30;99.90
8043;DHT22;4064;48.132;11.366;2022-10-28T06:23:25;10.30;99.90
8043;DHT22;4064;48.132;11.366;2022-10-28T06:25:56;10.30;99.90
8043;DHT22;4064;48.132;11.366;2022-10-28T06:28:22;10.40;99.90
8043;DHT22;4064;48.132;11.366;2022-10-28T06:30:47;10.50;99.90
8043;DHT22;4064;48.132;11.366;2022-10-28T06:33:13;10.60;99.90
8043;DHT22;4064;48.132;11.366;2022-10-28T06:35:39;10.70;99.90
8043;DHT22;4064;48.132;11.366;2022-10-28T06:38:04;10.80;99.90
8043;DHT22;4064;48.132;11.366;2022-10-28T06:40:30;11.00;99.90
8043;DHT22;4064;48.132;11.366;2022-10-28T06:42:57;11.10;99.90
8043;DHT22;4064;48.132;11.366;2022-10-28T06:45:23;11.10;99.90
8043;DHT22;4064;48.132;11.366;2022-10-28T06:47:48;11.20;99.90
8043;DHT22;4064;48.132;11.366;2022-10-28T06:50:14;11.30;99.90
8043;DHT22;4064;48.132;11.366;2022-10-28T06:52:40;11.30;99.90
8043;DHT22;4064;48.132;11.366;2022-10-28T06:55:05;11.50;99.90
8043;DHT22;4064;48.132;11.366;2022-10-28T06:57:31;11.60;99.90
8043;DHT22;4064;48.132;11.366;2022-10-28T06:59:57;11.70;99.90
8043;DHT22;4064;48.132;11.366;2022-10-28T07:02:22;11.70;99.90
8043;DHT22;4064;48.132;11.366;2022-10-28T07:04:48;11.90;99.90
8043;DHT22;4064;48.132;11.366;2022-10-28T07:07:13;12.00;99.90
8043;DHT22;4064;48.132;11.366;2022-10-28T07:09:39;12.10;99.90
8043;DHT22;4064;48.132;11.366;2022-10-28T07:12:06;12.20;99.90
8043;DHT22;4064;48.132;11.366;2022-10-28T07:14:32;12.40;99.90
8043;DHT22;4064;48.132;11.366;2022-10-28T07:16:59;12.60;99.90
8043;DHT22;4064;48.132;11.366;2022-10-28T07:19:25;12.70;99.90
8043;DHT22;4064;48.132;11.366;2022-10-28T07:21:50;12.90;99.90
8043;DHT22;4064;48.132;11.366;2022-10-28T07:24:16;13.10;99.90
8043;DHT22;4064;48.132;11.366;2022-10-28T07:26:41;13.30;99.90
8043;DHT22;4064;48.132;11.366;2022-10-28T07:29:07;13.40;99.90
8043;DHT22;4064;48.132;11.366;2022-10-28T07:31:33;13.60;99.90
8043;DHT22;4064;48.132;11.366;2022-10-28T07:33:58;13.80;99.90
8043;DHT22;4064;48.132;11.366;2022-10-28T07:36:24;14.10;99.90
8043;DHT22;4064;48.132;11.366;2022-10-28T07:38:51;14.40;99.90
8043;DHT22;4064;48.132;11.366;2022-10-28T07:41:18;14.70;99.90
8043;DHT22;4064;48.132;11.366;2022-10-28T07:43:44;15.10;99.90
8043;DHT22;4064;48.132;11.366;2022-10-28T07:46:10;15.70;99.90
8043;DHT22;4064;48.132;11.366;2022-10-28T07:48:36;16.90;99.90
8043;DHT22;4064;48.132;11.366;2022-10-28T07:51:04;18.70;99.90
8043;DHT22;4064;48.132;11.366;2022-10-28T07:53:30;20.30;99.90
8043;DHT22;4064;48.132;11.366;2022-10-28T07:55:58;21.70;96.30
8043;DHT22;4064;48.132;11.366;2022-10-28T07:58:24;22.90;91.20
8043;DHT22;4064;48.132;11.366;2022-10-28T08:00:49;23.80;82.10
8043;DHT22;4064;48.132;11.366;2022-10-28T08:03:15;24.10;74.40
8043;DHT22;4064;48.132;11.366;2022-10-28T08:05:40;24.30;72.00
8043;DHT22;4064;48.132;11.366;2022-10-28T08:08:06;23.80;69.80
8043;DHT22;4064;48.132;11.366;2022-10-28T08:10:32;22.90;67.70
8043;DHT22;4064;48.132;11.366;2022-10-28T08:12:57;22.00;69.60
8043;DHT22;4064;48.132;11.366;2022-10-28T08:15:25;21.40;72.50
8043;DHT22;4064;48.132;11.366;2022-10-28T08:17:51;21.20;76.00
8043;DHT22;4064;48.132;11.366;2022-10-28T08:20:17;20.90;76.40
8043;DHT22;4064;48.132;11.366;2022-10-28T08:22:43;20.60;74.00
8043;DHT22;4064;48.132;11.366;2022-10-28T08:25:09;20.20;75.90
8043;DHT22;4064;48.132;11.366;2022-10-28T08:27:34;20.00;77.90
8043;DHT22;4064;48.132;11.366;2022-10-28T08:30:00;19.80;80.00
8043;DHT22;4064;48.132;11.366;2022-10-28T08:32:26;19.60;85.40
8043;DHT22;4064;48.132;11.366;2022-10-28T08:34:51;19.50;89.70
8043;DHT22;4064;48.132;11.366;2022-10-28T08:37:17;19.30;84.70
8043;DHT22;4064;48.132;11.366;2022-10-28T08:39:42;19.20;83.70
8043;DHT22;4064;48.132;11.366;2022-10-28T08:48:20;19.20;89.30
8043;DHT22;4064;48.132;11.366;2022-10-28T08:50:53;19.30;92.20
8043;DHT22;4064;48.132;11.366;2022-10-28T08:53:27;19.40;92.40
8043;DHT22;4064;48.132;11.366;2022-10-28T08:55:55;19.40;91.90
8043;DHT22;4064;48.132;11.366;2022-10-28T08:58:28;19.40;91.50
8043;DHT22;4064;48.132;11.366;2022-10-28T09:00:57;19.50;93.50
8043;DHT22;4064;48.132;11.366;2022-10-28T09:03:31;19.60;95.30
8043;DHT22;4064;48.132;11.366;2022-10-28T09:06:08;19.60;95.90
8043;DHT22;4064;48.132;11.366;2022-10-28T09:08:40;19.70;96.00
8043;DHT22;4064;48.132;11.366;2022-10-28T09:19:14;20.90;92.20
8043;DHT22;4064;48.132;11.366;2022-10-28T09:21:46;21.50;88.90
8043;DHT22;4064;48.132;11.366;2022-10-28T09:24:20;21.90;83.90
8043;DHT22;4064;48.132;11.366;2022-10-28T09:27:03;21.90;80.50
8043;DHT22;4064;48.132;11.366;2022-10-28T09:34:47;21.50;83.50
8043;DHT22;4064;48.132;11.366;2022-10-28T09:37:18;21.60;81.00
8043;DHT22;4064;48.132;11.366;2022-10-28T09:39:49;21.70;80.70
8043;DHT22;4064;48.132;11.366;2022-10-28T09:42:23;22.10;79.80
8043;DHT22;4064;48.132;11.366;2022-10-28T09:45:05;22.30;77.00
8043;DHT22;4064;48.132;11.366;2022-10-28T09:47:50;22.60;77.30
8043;DHT22;4064;48.132;11.366;2022-10-28T09:50:22;22.90;74.90
8043;DHT22;4064;48.132;11.366;2022-10-28T09:53:06;23.00;71.40
8043;DHT22;4064;48.132;11.366;2022-10-28T09:55:35;23.20;69.30
8043;DHT22;4064;48.132;11.366;2022-10-28T09:58:04;23.50;70.40
8043;DHT22;4064;48.132;11.366;2022-10-28T10:00:30;23.50;68.60
8043;DHT22;4064;48.132;11.366;2022-10-28T10:02:57;23.70;68.60
8043;DHT22;4064;48.132;11.366;2022-10-28T10:05:24;23.80;68.80
8043;DHT22;4064;48.132;11.366;2022-10-28T10:07:56;24.00;67.70
8043;DHT22;4064;48.132;11.366;2022-10-28T10:10:26;24.10;67.80
8043;DHT22;4064;48.132;11.366;2022-10-28T10:12:56;24.10;65.00
8043;DHT22;4064;48.132;11.366;2022-10-28T10:15:29;24.20;64.00
8043;DHT22;4064;48.132;11.366;2022-10-28T10:18:01;24.20;62.10
8043;DHT22;4064;48.132;11.366;2022-10-28T10:20:48;24.10;61.90
8043;DHT22;4064;48.132;11.366;2022-10-28T10:23:40;24.20;60.90
8043;DHT22;4064;48.132;11.366;2022-10-28T10:26:12;24.00;60.50
8043;DHT22;4064;48.132;11.366;2022-10-28T10:28:43;23.80;61.10
8043;DHT22;4064;48.132;11.366;2022-10-28T10:31:22;23.70;61.70
8043;DHT22;4064;48.132;11.366;2022-10-28T10:33:49;23.60;60.90
8043;DHT22;4064;48.132;11.366;2022-10-28T10:36:18;23.50;60.70
8043;DHT22;4064;48.132;11.366;2022-10-28T10:38:51;23.50;61.70
8043;DHT22;4064;48.132;11.366;2022-10-28T10:41:38;23.50;61.50
8043;DHT22;4064;48.132;11.366;2022-10-28T10:47:28;23.60;60.90
8043;DHT22;4064;48.132;11.366;2022-10-28T10:49:35;23.80;61.60
8043;DHT22;4064;48.132;11.366;2022-10-28T10:52:03;23.70;61.10
8043;DHT22;4064;48.132;11.366;2022-10-28T10:54:32;23.90;63.50
8043;DHT22;4064;48.132;11.366;2022-10-28T10:57:19;24.00;63.30
8043;DHT22;4064;48.132;11.366;2022-10-28T10:59:48;24.20;61.80
8043;DHT22;4064;48.132;11.366;2022-10-28T11:02:30;24.30;63.30
8043;DHT22;4064;48.132;11.366;2022-10-28T11:05:02;24.50;62.50
8043;DHT22;4064;48.132;11.366;2022-10-28T11:07:28;24.50;62.40
8043;DHT22;4064;48.132;11.366;2022-10-28T11:09:55;24.50;63.10
8043;DHT22;4064;48.132;11.366;2022-10-28T11:12:31;24.50;64.00
8043;DHT22;4064;48.132;11.366;2022-10-28T11:28:02;25.20;60.10
8043;DHT22;4064;48.132;11.366;2022-10-28T11:31:00;25.00;59.40
8043;DHT22;4064;48.132;11.366;2022-10-28T11:33:53;24.90;59.70
8043;DHT22;4064;48.132;11.366;2022-10-28T11:42:38;25.00;59.20
8043;DHT22;4064;48.132;11.366;2022-10-28T11:48:09;25.10;59.70
8043;DHT22;4064;48.132;11.366;2022-10-28T11:53:39;25.30;58.50
8043;DHT22;4064;48.132;11.366;2022-10-28T12:01:17;25.60;56.70
8043;DHT22;4064;48.132;11.366;2022-10-28T12:12:18;26.30;55.90
8043;DHT22;4064;48.132;11.366;2022-10-28T12:22:26;26.50;54.80
8043;DHT22;4064;48.132;11.366;2022-10-28T12:24:54;26.40;54.60
8043;DHT22;4064;48.132;11.366;2022-10-28T12:27:34;26.30;54.50
8043;DHT22;4064;48.132;11.366;2022-10-28T12:30:13;26.20;53.60
8043;DHT22;4064;48.132;11.366;2022-10-28T12:32:43;26.10;54.90
8043;DHT22;4064;48.132;11.366;2022-10-28T12:37:48;26.30;56.50
8043;DHT22;4064;48.132;11.366;2022-10-28T12:40:19;26.40;56.90
8043;DHT22;4064;48.132;11.366;2022-10-28T12:45:32;26.30;55.70
8043;DHT22;4064;48.132;11.366;2022-10-28T12:48:20;26.30;55.30
8043;DHT22;4064;48.132;11.366;2022-10-28T12:50:50;26.20;57.50
8043;DHT22;4064;48.132;11.366;2022-10-28T12:53:22;26.30;56.80
8043;DHT22;4064;48.132;11.366;2022-10-28T12:56:00;26.20;54.90
8043;DHT22;4064;48.132;11.366;2022-10-28T12:58:39;26.10;54.40
8043;DHT22;4064;48.132;11.366;2022-10-28T13:01:15;25.90;56.60
8043;DHT22;4064;48.132;11.366;2022-10-28T13:03:41;25.80;60.20
8043;DHT22;4064;48.132;11.366;2022-10-28T13:09:20;25.40;57.90
8043;DHT22;4064;48.132;11.366;2022-10-28T13:20:16;24.70;59.90
8043;DHT22;4064;48.132;11.366;2022-10-28T13:23:04;24.70;59.20
8043;DHT22;4064;48.132;11.366;2022-10-28T13:28:18;24.60;57.10
8043;DHT22;4064;48.132;11.366;2022-10-28T13:30:52;24.60;56.40
8043;DHT22;4064;48.132;11.366;2022-10-28T13:33:22;24.60;56.70
8043;DHT22;4064;48.132;11.366;2022-10-28T13:35:48;24.60;56.00
8043;DHT22;4064;48.132;11.366;2022-10-28T13:38:22;24.50;56.80
8043;DHT22;4064;48.132;11.366;2022-10-28T13:49:31;23.90;74.30
8043;DHT22;4064;48.132;11.366;2022-10-28T13:59:51;23.40;79.80
8043;DHT22;4064;48.132;11.366;2022-10-28T14:02:22;23.50;80.40
8043;DHT22;4064;48.132;11.366;2022-10-28T14:05:23;23.50;80.20
8043;DHT22;4064;48.132;11.366;2022-10-28T14:07:59;23.60;79.90
8043;DHT22;4064;48.132;11.366;2022-10-28T14:10:27;23.60;80.50
8043;DHT22;4064;48.132;11.366;2022-10-28T14:13:02;23.60;80.70
8043;DHT22;4064;48.132;11.366;2022-10-28T14:15:36;23.60;80.70
8043;DHT22;4064;48.132;11.366;2022-10-28T14:18:06;23.50;82.20
8043;DHT22;4064;48.132;11.366;2022-10-28T14:34:24;23.10;85.90
8043;DHT22;4064;48.132;11.366;2022-10-28T14:42:45;22.70;88.00
8043;DHT22;4064;48.132;11.366;2022-10-28T14:45:38;22.50;89.50
8043;DHT22;4064;48.132;11.366;2022-10-28T14:48:35;22.30;90.50
8043;DHT22;4064;48.132;11.366;2022-10-28T14:51:11;22.10;91.00
8043;DHT22;4064;48.132;11.366;2022-10-28T14:53:39;21.90;91.70
8043;DHT22;4064;48.132;11.366;2022-10-28T14:56:09;21.70;92.10
8043;DHT22;4064;48.132;11.366;2022-10-28T14:58:38;21.60;92.60
8043;DHT22;4064;48.132;11.366;2022-10-28T15:03:49;21.40;93.30
8043;DHT22;4064;48.132;11.366;2022-10-28T15:08:48;21.10;94.20
8043;DHT22;4064;48.132;11.366;2022-10-28T15:11:17;21.00;95.00
8043;DHT22;4064;48.132;11.366;2022-10-28T15:13:43;20.80;95.60
8043;DHT22;4064;48.132;11.366;2022-10-28T15:16:19;20.70;96.10
8043;DHT22;4064;48.132;11.366;2022-10-28T15:18:50;20.50;96.60
8043;DHT22;4064;48.132;11.366;2022-10-28T15:21:17;20.40;96.90
8043;DHT22;4064;48.132;11.366;2022-10-28T15:23:43;20.30;97.80
8043;DHT22;4064;48.132;11.366;2022-10-28T15:26:11;20.10;98.60
8043;DHT22;4064;48.132;11.366;2022-10-28T15:28:38;20.00;99.20
8043;DHT22;4064;48.132;11.366;2022-10-28T15:31:04;19.80;99.90
8043;DHT22;4064;48.132;11.366;2022-10-28T15:33:35;19.70;99.90
8043;DHT22;4064;48.132;11.366;2022-10-28T15:36:22;19.60;99.90
8043;DHT22;4064;48.132;11.366;2022-10-28T15:39:04;19.50;99.90
8043;DHT22;4064;48.132;11.366;2022-10-28T15:41:41;19.30;99.90
8043;DHT22;4064;48.132;11.366;2022-10-28T15:44:36;19.10;99.90
8043;DHT22;4064;48.132;11.366;2022-10-28T15:47:32;19.00;99.90
8043;DHT22;4064;48.132;11.366;2022-10-28T15:55:36;18.50;99.90
8043;DHT22;4064;48.132;11.366;2022-10-28T16:03:43;18.10;99.90
8043;DHT22;4064;48.132;11.366;2022-10-28T16:06:31;17.90;99.90
8043;DHT22;4064;48.132;11.366;2022-10-28T16:11:29;17.70;99.90
8043;DHT22;4064;48.132;11.366;2022-10-28T16:13:55;17.60;99.90
8043;DHT22;4064;48.132;11.366;2022-10-28T16:16:27;17.40;99.90
8043;DHT22;4064;48.132;11.366;2022-10-28T16:19:22;17.30;99.90
8043;DHT22;4064;48.132;11.366;2022-10-28T16:21:49;17.30;99.90
8043;DHT22;4064;48.132;11.366;2022-10-28T16:24:15;17.20;99.90
8043;DHT22;4064;48.132;11.366;2022-10-28T16:26:41;17.10;99.90
8043;DHT22;4064;48.132;11.366;2022-10-28T16:29:06;17.00;99.90
8043;DHT22;4064;48.132;11.366;2022-10-28T16:31:33;17.00;99.90
8043;DHT22;4064;48.132;11.366;2022-10-28T16:33:59;16.90;99.90
8043;DHT22;4064;48.132;11.366;2022-10-28T16:36:25;16.90;99.90
8043;DHT22;4064;48.132;11.366;2022-10-28T16:38:53;16.80;99.90
8043;DHT22;4064;48.132;11.366;2022-10-28T16:41:19;16.80;99.90
8043;DHT22;4064;48.132;11.366;2022-10-28T16:43:45;16.60;99.90
8043;DHT22;4064;48.132;11.366;2022-10-28T16:46:12;16.60;99.90
8043;DHT22;4064;48.132;11.366;2022-10-28T16:48:38;16.50;99.90
8043;DHT22;4064;48.132;11.366;2022-10-28T16:51:15;16.40;99.90
8043;DHT22;4064;48.132;11.366;2022-10-28T16:53:42;16.30;99.90
8043;DHT22;4064;48.132;11.366;2022-10-28T16:56:15;16.30;99.90
8043;DHT22;4064;48.132;11.366;2022-10-28T16:58:41;16.20;99.90
8043;DHT22;4064;48.132;11.366;2022-10-28T17:01:08;16.20;99.90
8043;DHT22;4064;48.132;11.366;2022-10-28T17:03:34;16.10;99.90
8043;DHT22;4064;48.132;11.366;2022-10-28T17:06:00;16.00;99.90
8043;DHT22;4064;48.132;11.366;2022-10-28T17:08:25;15.90;99.90
8043;DHT22;4064;48.132;11.366;2022-10-28T17:10:51;15.80;99.90
8043;DHT22;4064;48.132;11.366;2022-10-28T17:13:16;15.80;99.90
8043;DHT22;4064;48.132;11.366;2022-10-28T17:15:42;15.70;99.90
8043;DHT22;4064;48.132;11.366;2022-10-28T17:18:11;15.60;99.90
8043;DHT22;4064;48.132;11.366;2022-10-28T17:20:37;15.50;99.90
8043;DHT22;4064;48.132;11.366;2022-10-28T17:23:04;15.50;99.90
8043;DHT22;4064;48.132;11.366;2022-10-28T17:25:30;15.50;99.90
8043;DHT22;4064;48.132;11.366;2022-10-28T17:27:55;15.50;99.90
8043;DHT22;4064;48.132;11.366;2022-10-28T17:30:21;15.50;99.90
8043;DHT22;4064;48.132;11.366;2022-10-28T17:32:52;15.50;99.90
8043;DHT22;4064;48.132;11.366;2022-10-28T17:35:19;15.40;99.90
8043;DHT22;4064;48.132;11.366;2022-10-28T17:37:45;15.40;99.90
8043;DHT22;4064;48.132;11.366;2022-10-28T17:40:11;15.30;99.90
8043;DHT22;4064;48.132;11.366;2022-10-28T17:42:37;15.30;99.90
8043;DHT22;4064;48.132;11.366;2022-10-28T17:45:04;15.20;99.90
8043;DHT22;4064;48.132;11.366;2022-10-28T17:47:32;15.20;99.90
8043;DHT22;4064;48.132;11.366;2022-10-28T17:49:57;15.10;99.90
8043;DHT22;4064;48.132;11.366;2022-10-28T17:52:24;15.00;99.90
8043;DHT22;4064;48.132;11.366;2022-10-28T17:54:50;14.90;99.90
8043;DHT22;4064;48.132;11.366;2022-10-28T17:57:16;14.90;99.90
8043;DHT22;4064;48.132;11.366;2022-10-28T17:59:41;14.90;99.90
8043;DHT22;4064;48.132;11.366;2022-10-28T18:02:09;14.90;99.90
8043;DHT22;4064;48.132;11.366;2022-10-28T18:04:36;14.90;99.90
8043;DHT22;4064;48.132;11.366;2022-10-28T18:07:02;14.90;99.90
8043;DHT22;4064;48.132;11.366;2022-10-28T18:09:27;14.90;99.90
8043;DHT22;4064;48.132;11.366;2022-10-28T18:11:56;14.90;99.90
8043;DHT22;4064;48.132;11.366;2022-10-28T18:14:21;14.90;99.90
8043;DHT22;4064;48.132;11.366;2022-10-28T18:16:47;14.90;99.90
8043;DHT22;4064;48.132;11.366;2022-10-28T18:19:14;14.90;99.90
8043;DHT22;4064;48.132;11.366;2022-10-28T18:21:40;14.90;99.90
8043;DHT22;4064;48.132;11.366;2022-10-28T18:24:06;14.90;99.90
8043;DHT22;4064;48.132;11.366;2022-10-28T18:26:34;14.90;99.90
8043;DHT22;4064;48.132;11.366;2022-10-28T18:29:00;14.80;99.90
8043;DHT22;4064;48.132;11.366;2022-10-28T18:31:29;14.70;99.90
8043;DHT22;4064;48.132;11.366;2022-10-28T18:33:56;14.70;99.90
8043;DHT22;4064;48.132;11.366;2022-10-28T18:36:25;14.70;99.90
8043;DHT22;4064;48.132;11.366;2022-10-28T18:38:51;14.60;99.90
8043;DHT22;4064;48.132;11.366;2022-10-28T18:41:19;14.60;99.90
8043;DHT22;4064;48.132;11.366;2022-10-28T18:43:45;14.60;99.90
8043;DHT22;4064;48.132;11.366;2022-10-28T18:46:12;14.60;99.90
8043;DHT22;4064;48.132;11.366;2022-10-28T18:48:38;14.70;99.90
8043;DHT22;4064;48.132;11.366;2022-10-28T18:51:06;14.70;99.90
8043;DHT22;4064;48.132;11.366;2022-10-28T18:53:35;14.70;99.90
8043;DHT22;4064;48.132;11.366;2022-10-28T18:56:02;14.70;99.90
8043;DHT22;4064;48.132;11.366;2022-10-28T18:58:29;14.70;99.90
8043;DHT22;4064;48.132;11.366;2022-10-28T19:01:06;14.80;99.90
8043;DHT22;4064;48.132;11.366;2022-10-28T19:03:32;14.90;99.90